createdAt,value
2023-02-08T00:01:59.811Z,-1.51
2023-02-08T00:06:02.532Z,-1.55
2023-02-08T00:10:07.153Z,-1.55
2023-02-08T00:14:12.381Z,-1.55
2023-02-08T00:18:17.061Z,-1.53
2023-02-08T00:22:20.157Z,-1.54
2023-02-08T00:26:24.012Z,-1.53
2023-02-08T00:30:27.701Z,-1.54
2023-02-08T00:34:32.588Z,-1.56
2023-02-08T00:38:38.658Z,-1.59
2023-02-08T00:42:41.844Z,-1.59
2023-02-08T00:46:45.369Z,-1.63
2023-02-08T00:51:00.796Z,-1.64
2023-02-08T00:55:04.308Z,-1.67
2023-02-08T00:59:07.471Z,-1.68
2023-02-08T01:03:10.597Z,-1.71
2023-02-08T01:07:15.283Z,-1.73
2023-02-08T01:11:25.621Z,-1.74
2023-02-08T01:15:28.417Z,-1.75
2023-02-08T01:19:34.260Z,-1.76
2023-02-08T01:23:39.342Z,-1.77
2023-02-08T01:27:42.566Z,-1.76
2023-02-08T01:31:48.418Z,-1.74
2023-02-08T01:35:53.359Z,-1.72
2023-02-08T01:39:58.034Z,-1.72
2023-02-08T01:44:05.504Z,-1.73
2023-02-08T01:48:14.493Z,-1.75
2023-02-08T01:52:21.965Z,-1.76
2023-02-08T01:56:30.450Z,-1.76
2023-02-08T02:00:34.284Z,-1.79
2023-02-08T02:04:37.898Z,-1.80
2023-02-08T02:08:46.806Z,-1.81
2023-02-08T02:12:52.643Z,-1.82
2023-02-08T02:17:00.703Z,-1.84
2023-02-08T02:21:26.848Z,-1.83
2023-02-08T02:26:02.244Z,-1.85
2023-02-08T02:30:40.875Z,-1.86
2023-02-08T02:34:51.237Z,-1.86
2023-02-08T02:39:07.140Z,-1.87
2023-02-08T02:43:35.225Z,-1.89
2023-02-08T02:47:48.747Z,-1.92
2023-02-08T02:52:12.577Z,-1.93
2023-02-08T02:56:18.878Z,-1.95
2023-02-08T03:00:25.722Z,-1.99
2023-02-08T03:04:55.152Z,-1.99
2023-02-08T03:09:20.152Z,-2.01
2023-02-08T03:13:33.148Z,-2.02
2023-02-08T03:17:52.346Z,-2.05
2023-02-08T03:22:00.023Z,-2.03
2023-02-08T03:26:10.965Z,-2.02
2023-02-08T03:30:18.957Z,-2.06
2023-02-08T03:34:29.758Z,-2.07
2023-02-08T03:38:37.477Z,-2.08
2023-02-08T03:42:43.224Z,-2.06
2023-02-08T03:46:52.344Z,-2.06
2023-02-08T03:50:58.496Z,-2.08
2023-02-08T03:55:05.982Z,-2.09
2023-02-08T03:59:16.324Z,-2.10
2023-02-08T04:03:24.119Z,-2.13
2023-02-08T04:07:27.363Z,-2.16
2023-02-08T04:11:30.773Z,-2.18
2023-02-08T04:15:35.667Z,-2.20
2023-02-08T04:19:38.639Z,-2.22
2023-02-08T04:23:41.613Z,-2.21
2023-02-08T04:27:44.901Z,-2.22
2023-02-08T04:31:49.275Z,-2.23
2023-02-08T04:35:52.417Z,-2.21
2023-02-08T04:39:55.474Z,-2.23
2023-02-08T04:43:58.578Z,-2.23
2023-02-08T04:48:07.698Z,-2.24
2023-02-08T04:52:10.935Z,-2.24
2023-02-08T05:02:05.906Z,-2.25
2023-02-08T05:06:10.401Z,-2.25
2023-02-08T05:10:13.376Z,-2.25
2023-02-08T05:14:16.516Z,-2.26
2023-02-08T05:18:19.616Z,-2.26
2023-02-08T05:22:24.134Z,-2.26
2023-02-08T05:26:27.287Z,-2.24
2023-02-08T05:30:31.731Z,-2.24
2023-02-08T05:34:34.798Z,-2.23
2023-02-08T05:38:39.162Z,-2.21
2023-02-08T05:42:42.702Z,-2.22
2023-02-08T05:46:46.302Z,-2.20
2023-02-08T05:50:49.769Z,-2.22
2023-02-08T05:54:54.271Z,-2.21
2023-02-08T05:58:57.461Z,-2.20
2023-02-08T06:03:00.669Z,-2.17
2023-02-08T06:07:03.776Z,-2.18
2023-02-08T06:11:13.961Z,-2.16
2023-02-08T06:15:17.076Z,-2.14
2023-02-08T06:19:20.537Z,-2.12
2023-02-08T06:23:24.339Z,-2.12
2023-02-08T06:27:28.649Z,-2.10
2023-02-08T06:31:31.744Z,-2.05
2023-02-08T06:35:34.786Z,-2.01
2023-02-08T06:39:37.986Z,-1.95
2023-02-08T06:43:42.578Z,-1.90
2023-02-08T06:47:46.108Z,-1.85
2023-02-08T06:51:49.380Z,-1.79
2023-02-08T06:55:52.819Z,-1.73
2023-02-08T06:59:57.687Z,-1.68
2023-02-08T07:04:00.665Z,-1.59
2023-02-08T07:08:03.730Z,-1.51
2023-02-08T07:12:07.544Z,-1.44
2023-02-08T07:16:12.641Z,-1.34
2023-02-08T07:20:15.993Z,-1.25
2023-02-08T07:24:19.275Z,-1.18
2023-02-08T07:28:22.228Z,-1.12
2023-02-08T07:32:27.191Z,-1.03
2023-02-08T07:36:30.284Z,-0.97
2023-02-08T07:40:36.258Z,-0.87
2023-02-08T07:44:39.924Z,-0.74
2023-02-08T07:48:45.345Z,-0.59
2023-02-08T07:52:48.665Z,-0.42
2023-02-08T07:56:51.875Z,-0.30
2023-02-08T08:00:55.127Z,-0.20
2023-02-08T08:04:59.343Z,-0.07
2023-02-08T08:09:02.462Z,-0.03
2023-02-08T08:13:05.242Z,0.05
2023-02-08T08:17:08.911Z,0.11
2023-02-08T08:21:17.004Z,0.18
2023-02-08T08:25:20.166Z,0.22
2023-02-08T08:29:23.353Z,0.23
2023-02-08T08:33:26.585Z,0.27
2023-02-08T08:37:30.869Z,0.34
2023-02-08T08:41:33.798Z,0.32
2023-02-08T08:45:37.025Z,0.42
2023-02-08T08:49:39.893Z,0.55
2023-02-08T08:53:44.271Z,0.71
2023-02-08T08:57:47.347Z,0.88
2023-02-08T09:01:50.486Z,1.03
2023-02-08T09:05:53.743Z,1.18
2023-02-08T09:09:58.381Z,1.35
2023-02-08T09:14:03.948Z,1.59
2023-02-08T09:18:07.433Z,1.66
2023-02-08T09:22:10.762Z,1.84
2023-02-08T09:26:17.501Z,2.13
2023-02-08T09:30:21.549Z,2.45
2023-02-08T09:34:24.778Z,2.67
2023-02-08T09:38:28.048Z,3.10
2023-02-08T09:42:42.108Z,3.17
2023-02-08T09:46:51.595Z,3.05
2023-02-08T09:50:59.010Z,3.15
2023-02-08T09:55:12.325Z,2.88
2023-02-08T09:59:22.974Z,2.91
2023-02-08T10:03:35.327Z,2.92
2023-02-08T10:07:38.952Z,3.04
2023-02-08T10:11:51.222Z,3.10
2023-02-08T10:16:05.586Z,3.35
2023-02-08T10:20:19.477Z,3.54
2023-02-08T10:24:48.081Z,3.44
2023-02-08T10:29:06.926Z,3.65
2023-02-08T10:33:18.315Z,3.76
2023-02-08T10:37:23.053Z,3.62
2023-02-08T10:41:31.103Z,3.25
2023-02-08T10:45:42.136Z,3.02
2023-02-08T10:50:00.627Z,2.95
2023-02-08T10:54:03.888Z,2.87
2023-02-08T10:58:08.179Z,2.90
2023-02-08T11:02:23.157Z,3.05
2023-02-08T11:06:30.627Z,3.06
2023-02-08T11:10:35.365Z,3.18
2023-02-08T11:14:47.380Z,2.95
2023-02-08T11:18:53.367Z,2.89
2023-02-08T11:23:00.044Z,2.97
2023-02-08T11:27:03.716Z,2.86
2023-02-08T11:31:16.592Z,3.05
2023-02-08T11:35:23.752Z,3.52
2023-02-08T11:39:42.953Z,3.78
2023-02-08T11:44:01.940Z,3.61
2023-02-08T11:48:06.345Z,3.68
2023-02-08T11:52:22.339Z,3.97
2023-02-08T11:56:29.112Z,3.96
2023-02-08T12:00:35.500Z,4.27
2023-02-08T12:04:38.423Z,4.37
2023-02-08T12:08:46.528Z,4.34
2023-02-08T12:13:17.219Z,4.01
2023-02-08T12:17:51.080Z,3.81
2023-02-08T12:22:00.089Z,3.61
2023-02-08T12:26:16.058Z,3.27
2023-02-08T12:30:30.957Z,3.06
2023-02-08T12:34:49.662Z,3.18
2023-02-08T12:39:27.158Z,2.89
2023-02-08T12:43:46.184Z,3.05
2023-02-08T12:48:05.298Z,3.11
2023-02-08T12:52:23.285Z,2.98
2023-02-08T12:56:32.154Z,3.11
2023-02-08T13:00:39.106Z,2.99
2023-02-08T13:04:48.766Z,2.99
2023-02-08T13:09:01.593Z,2.95
2023-02-08T13:13:13.555Z,2.83
2023-02-08T13:17:22.582Z,2.96
2023-02-08T13:21:32.024Z,2.63
2023-02-08T13:25:39.082Z,2.15
2023-02-08T13:29:42.347Z,1.78
2023-02-08T13:34:00.957Z,1.60
2023-02-08T13:38:08.889Z,1.73
2023-02-08T13:42:23.835Z,1.77
2023-02-08T13:46:29.256Z,1.97
2023-02-08T13:50:46.696Z,2.01
2023-02-08T13:55:30.860Z,1.90
2023-02-08T13:59:42.174Z,1.83
2023-02-08T14:03:46.647Z,1.67
2023-02-08T14:07:53.650Z,1.40
2023-02-08T14:12:04.241Z,0.99
2023-02-08T14:16:31.106Z,0.55
2023-02-08T14:20:39.928Z,0.24
2023-02-08T14:24:47.726Z,-0.07
2023-02-08T14:28:57.318Z,-0.38
2023-02-08T14:33:18.481Z,-0.63
2023-02-08T14:37:30.644Z,-0.81
2023-02-08T14:41:54.933Z,-1.03
2023-02-08T14:46:00.328Z,-1.19
2023-02-08T14:50:13.051Z,-1.32
2023-02-08T14:54:25.017Z,-1.53
2023-02-08T14:58:32.285Z,-1.66
2023-02-08T15:02:42.748Z,-1.87
2023-02-08T15:07:01.388Z,-2.16
2023-02-08T15:11:07.162Z,-2.44
2023-02-08T15:15:25.285Z,-2.68
2023-02-08T15:19:34.247Z,-2.89
2023-02-08T15:23:37.493Z,-3.06
2023-02-08T15:27:47.136Z,-3.23
2023-02-08T15:31:50.994Z,-3.39
2023-02-08T15:36:01.117Z,-3.56
2023-02-08T15:40:05.495Z,-3.70
2023-02-08T15:44:18.820Z,-3.88
2023-02-08T15:48:22.813Z,-3.98
2023-02-08T15:52:29.312Z,-4.10
2023-02-08T15:56:39.336Z,-4.23
2023-02-08T16:00:46.211Z,-4.38
2023-02-08T16:04:49.768Z,-4.47
2023-02-08T16:08:57.948Z,-4.54
2023-02-08T16:13:04.393Z,-4.59
2023-02-08T16:17:25.311Z,-4.67
2023-02-08T16:21:33.509Z,-4.69
2023-02-08T16:25:45.998Z,-4.75
2023-02-08T16:29:50.151Z,-4.87
2023-02-08T16:34:03.269Z,-4.95
2023-02-08T16:38:10.387Z,-5.06
2023-02-08T16:42:29.799Z,-5.16
2023-02-08T16:46:33.222Z,-5.20
2023-02-08T16:50:44.638Z,-5.30
2023-02-08T16:54:48.575Z,-5.38
2023-02-08T16:58:53.546Z,-5.39
2023-02-08T17:03:00.680Z,-5.52
2023-02-08T17:07:03.856Z,-5.62
2023-02-08T17:11:07.043Z,-5.66
2023-02-08T17:15:13.296Z,-5.65
2023-02-08T17:19:20.318Z,-5.77
2023-02-08T17:23:27.739Z,-5.86
2023-02-08T17:27:32.017Z,-5.91
2023-02-08T17:31:40.299Z,-5.99
2023-02-08T17:35:48.698Z,-5.99
2023-02-08T17:39:54.107Z,-5.95
2023-02-08T17:44:01.109Z,-6.02
2023-02-08T17:48:09.090Z,-6.10
2023-02-08T17:52:15.775Z,-6.12
2023-02-08T17:56:21.144Z,-6.12
2023-02-08T18:00:25.587Z,-6.14
2023-02-08T18:04:31.434Z,-6.27
2023-02-08T18:08:37.113Z,-6.40
2023-02-08T18:12:41.758Z,-6.47
2023-02-08T18:16:44.990Z,-6.56
2023-02-08T18:20:49.710Z,-6.62
2023-02-08T18:24:53.053Z,-6.73
2023-02-08T18:28:56.641Z,-6.76
2023-02-08T18:33:00.440Z,-6.73
2023-02-08T18:37:10.856Z,-6.76
2023-02-08T18:41:16.030Z,-6.82
2023-02-08T18:45:19.373Z,-6.90
2023-02-08T18:49:22.704Z,-6.96
2023-02-08T18:53:28.746Z,-7.05
2023-02-08T18:57:32.596Z,-7.15
2023-02-08T19:01:35.865Z,-7.25
2023-02-08T19:05:39.827Z,-7.36
2023-02-08T19:09:46.195Z,-7.43
2023-02-08T19:13:52.159Z,-7.54
2023-02-08T19:17:56.199Z,-7.59
2023-02-08T19:21:59.289Z,-7.68
2023-02-08T19:26:05.527Z,-7.76
2023-02-08T19:30:10.107Z,-7.78
2023-02-08T19:34:13.317Z,-7.87
2023-02-08T19:38:16.878Z,-7.99
2023-02-08T19:42:21.745Z,-8.11
2023-02-08T19:46:25.969Z,-8.13
2023-02-08T19:50:29.227Z,-8.17
2023-02-08T19:54:32.421Z,-8.21
2023-02-08T19:58:38.542Z,-8.29
2023-02-08T20:02:41.770Z,-8.34
2023-02-08T20:06:45.939Z,-8.41
2023-02-08T20:10:49.822Z,-8.44
2023-02-08T20:14:56.324Z,-8.50
2023-02-08T20:19:02.200Z,-8.51
2023-02-08T20:23:21.975Z,-8.51
2023-02-08T20:27:25.401Z,-8.52
2023-02-08T20:31:31.938Z,-8.52
2023-02-08T20:35:38.107Z,-8.50
2023-02-08T20:39:41.549Z,-8.31
2023-02-08T20:43:46.625Z,-8.10
2023-02-08T20:47:51.354Z,-7.98
2023-02-08T20:51:55.074Z,-7.97
2023-02-08T20:55:58.481Z,-7.95
2023-02-08T21:00:01.561Z,-7.95
2023-02-08T21:04:06.698Z,-7.91
2023-02-08T21:08:09.952Z,-7.93
2023-02-08T21:12:15.220Z,-8.00
2023-02-08T21:16:19.085Z,-8.03
2023-02-08T21:20:23.885Z,-7.95
2023-02-08T21:24:28.006Z,-7.96
2023-02-08T21:28:31.665Z,-8.00
2023-02-08T21:32:36.624Z,-7.99
2023-02-08T21:36:41.332Z,-7.85
2023-02-08T21:40:44.769Z,-7.85
2023-02-08T21:44:48.220Z,-7.76
2023-02-08T21:49:08.954Z,-7.67
2023-02-08T21:53:32.680Z,-7.73
2023-02-08T21:57:40.075Z,-7.79
2023-02-08T22:01:44.609Z,-7.91
2023-02-08T22:05:48.331Z,-8.01
2023-02-08T22:09:53.156Z,-8.04
2023-02-08T22:13:56.472Z,-8.12
2023-02-08T22:18:01.344Z,-8.25
2023-02-08T22:22:04.455Z,-8.36
2023-02-08T22:26:12.523Z,-8.45
2023-02-08T22:30:17.745Z,-8.41
2023-02-08T22:34:22.698Z,-8.46
2023-02-08T22:38:26.002Z,-8.56
2023-02-08T22:42:30.557Z,-8.66
2023-02-08T22:46:33.683Z,-8.70
2023-02-08T22:50:38.953Z,-8.77
2023-02-08T22:54:42.594Z,-8.82
2023-02-08T22:58:47.245Z,-8.87
2023-02-08T23:02:50.373Z,-8.96
2023-02-08T23:06:53.372Z,-9.03
2023-02-08T23:11:01.188Z,-9.15
2023-02-08T23:15:09.404Z,-9.28
2023-02-08T23:19:15.690Z,-9.37
2023-02-08T23:23:19.724Z,-9.43
2023-02-08T23:27:22.679Z,-9.49
2023-02-08T23:31:28.223Z,-9.52
2023-02-08T23:35:31.546Z,-9.60
2023-02-08T23:39:35.413Z,-9.65
2023-02-08T23:43:39.034Z,-9.77
2023-02-08T23:47:43.706Z,-9.83
2023-02-08T23:51:46.469Z,-9.71
2023-02-08T23:55:49.625Z,-9.63
2023-02-08T23:59:52.886Z,-9.77
